Time;durP1;ratioP1;P1;durP2;ratioP2;P2;SDS_P1;SDS_P2;PMS_P1;PMS_P2;Temp;Humidity;BMP_temperature;BMP_pressure;BME280_temperature;BME280_humidity;BME280_pressure;Samples;Min_cycle;Max_cycle;Signal;HPM_P1;HPM_P2
2023/04/10 00:02:11;;;;;;;0.10;0.10;;;;;;;11.48;56.06;102121.88;5099797;28;20145;-86
2023/04/10 00:04:37;;;;;;;0.20;0.20;;;;;;;11.48;55.91;102125.41;5104402;28;20065;-86
2023/04/10 00:07:03;;;;;;;0.52;0.52;;;;;;;11.47;56.07;102115.66;5106325;28;20032;-86
2023/04/10 00:09:30;;;;;;;0.10;0.10;;;;;;;11.46;56.16;102107.72;5111408;28;20507;-87
2023/04/10 00:11:56;;;;;;;0.28;0.28;;;;;;;11.47;56.32;102102.38;5112267;28;20039;-86
2023/04/10 00:14:23;;;;;;;0.20;0.20;;;;;;;11.47;56.38;102090.91;5111893;28;20374;-86
2023/04/10 00:16:50;;;;;;;0.28;0.28;;;;;;;11.48;56.19;102090.88;5105214;28;20032;-86
2023/04/10 00:19:16;;;;;;;1.35;1.35;;;;;;;11.50;55.95;102090.88;5090838;28;20425;-86
2023/04/10 00:21:43;;;;;;;0.20;0.20;;;;;;;11.49;56.00;102087.34;5110796;28;20156;-86
2023/04/10 00:24:09;;;;;;;0.88;0.80;;;;;;;11.49;56.04;102086.47;5112447;28;20087;-86
2023/04/10 00:26:36;;;;;;;0.47;0.47;;;;;;;11.48;56.15;102079.41;5098154;28;20012;-86
2023/04/10 00:29:02;;;;;;;0.10;0.10;;;;;;;11.49;56.49;102078.53;5113852;28;20027;-86
2023/04/10 00:31:30;;;;;;;1.63;1.52;;;;;;;11.49;56.21;102081.19;5112141;28;20520;-86
2023/04/10 00:33:56;;;;;;;0.10;0.10;;;;;;;11.49;56.51;102075.88;5106176;28;20136;-86
2023/04/10 00:36:23;;;;;;;0.10;0.10;;;;;;;11.48;56.05;102079.41;5123299;28;20042;-85
2023/04/10 00:38:49;;;;;;;1.05;1.00;;;;;;;11.47;57.08;102083.81;5112753;28;20073;-85
2023/04/10 00:41:15;;;;;;;0.17;0.17;;;;;;;11.44;56.30;102082.94;5131927;28;20035;-85
2023/04/10 00:43:42;;;;;;;1.65;1.55;;;;;;;11.44;56.73;102074.97;5126282;28;20039;-85
2023/04/10 00:46:09;;;;;;;0.03;0.03;;;;;;;11.43;56.45;102067.94;5117922;28;20034;-86
2023/04/10 00:48:36;;;;;;;0.03;0.03;;;;;;;11.42;56.39;102064.38;5126872;28;20464;-86
2023/04/10 00:51:04;;;;;;;0.32;0.30;;;;;;;11.38;57.10;102067.06;5118022;28;20031;-85
2023/04/10 00:53:31;;;;;;;0.22;0.22;;;;;;;11.35;57.10;102056.44;5114045;28;20531;-86
2023/04/10 00:55:59;;;;;;;0.47;0.47;;;;;;;11.32;57.29;102057.34;5100031;28;20035;-85
2023/04/10 00:58:25;;;;;;;0.10;0.10;;;;;;;11.30;57.03;102064.41;5099531;28;20021;-85
2023/04/10 01:00:52;;;;;;;0.30;0.30;;;;;;;11.25;57.51;102059.16;5111152;28;20471;-85
2023/04/10 01:03:20;;;;;;;0.10;0.10;;;;;;;11.23;57.28;102052.09;5100118;28;20059;-85
2023/04/10 01:06:00;;;;;;;0.10;0.10;;;;;;;11.24;57.06;102051.16;5109608;28;20023;-86
2023/04/10 01:08:41;;;;;;;0.20;0.20;;;;;;;11.24;57.29;102052.06;5111352;28;20392;-85
2023/04/10 01:11:17;;;;;;;0.30;0.30;;;;;;;11.21;57.32;102038.81;5107794;28;20038;-85
2023/04/10 01:13:54;;;;;;;0.10;0.10;;;;;;;11.17;57.17;102037.94;5112159;28;20027;-84
2023/04/10 01:16:27;;;;;;;0.10;0.10;;;;;;;11.14;57.02;102037.94;5112189;28;20496;-84
2023/04/10 01:19:14;;;;;;;0.28;0.28;;;;;;;11.10;57.01;102030.00;5117935;28;20131;-84
2023/04/10 01:21:41;;;;;;;0.38;0.38;;;;;;;11.03;57.39;102022.94;5117157;28;20032;-85
2023/04/10 01:24:37;;;;;;;0.40;0.40;;;;;;;11.00;57.96;102022.09;5104748;28;20369;-86
2023/04/10 01:27:39;;;;;;;0.10;0.10;;;;;;;11.02;57.57;102018.56;5115867;28;20024;-84
2023/04/10 01:30:10;;;;;;;0.32;0.28;;;;;;;10.91;58.22;102022.09;5114523;28;20023;-84
2023/04/10 01:32:40;;;;;;;0.10;0.10;;;;;;;10.88;58.29;102014.16;5104687;28;20089;-84
2023/04/10 01:35:07;;;;;;;3.53;1.75;;;;;;;10.84;58.35;102002.69;5112259;28;20023;-84
2023/04/10 01:37:38;;;;;;;1.27;1.17;;;;;;;10.83;58.31;102019.47;5105462;28;20036;-84
2023/04/10 01:40:08;;;;;;;0.10;0.10;;;;;;;10.80;58.56;102013.28;5110769;28;20373;-84
2023/04/10 01:42:40;;;;;;;0.68;0.68;;;;;;;10.79;58.74;102014.16;5115136;28;20047;-85
2023/04/10 01:45:11;;;;;;;0.10;0.10;;;;;;;10.80;58.85;102006.22;5104689;28;20047;-86
2023/04/10 01:47:37;;;;;;;0.10;0.10;;;;;;;10.79;58.62;102007.13;5096280;28;20016;-86
2023/04/10 01:50:04;;;;;;;0.50;0.50;;;;;;;10.82;58.60;101992.97;5109771;28;20032;-85
2023/04/10 01:52:31;;;;;;;0.10;0.10;;;;;;;10.81;59.11;101996.50;5117172;28;20028;-86
2023/04/10 01:54:58;;;;;;;0.17;0.17;;;;;;;10.81;58.78;102001.81;5121344;28;20023;-86
2023/04/10 01:57:25;;;;;;;0.20;0.20;;;;;;;10.83;58.39;101997.38;5115672;28;20028;-86
2023/04/10 01:59:51;;;;;;;0.10;0.10;;;;;;;10.84;58.57;101988.53;5112043;28;20027;-85
2023/04/10 02:02:17;;;;;;;0.20;0.20;;;;;;;10.85;58.80;101992.94;5101601;28;20100;-85
2023/04/10 02:04:45;;;;;;;0.30;0.30;;;;;;;10.86;58.63;101996.50;5114674;28;20110;-85
2023/04/10 02:07:23;;;;;;;0.10;0.10;;;;;;;10.89;59.01;101988.50;5113730;28;20066;-84
2023/04/10 02:09:58;;;;;;;0.10;0.10;;;;;;;10.86;58.86;101989.41;5113364;28;20116;-86
2023/04/10 02:12:30;;;;;;;0.10;0.10;;;;;;;10.91;58.50;101987.63;5114031;28;20548;-84
2023/04/10 02:15:00;;;;;;;0.10;0.10;;;;;;;10.92;58.90;101984.09;5117197;28;20029;-83
2023/04/10 02:17:28;;;;;;;0.15;0.15;;;;;;;10.92;58.52;101984.09;5114279;28;20503;-86
2023/04/10 02:19:57;;;;;;;0.10;0.10;;;;;;;10.94;58.21;101998.25;5113686;28;20023;-85
2023/04/10 02:22:24;;;;;;;0.63;0.63;;;;;;;10.98;58.62;101993.81;5113647;28;20028;-85
2023/04/10 02:24:51;;;;;;;0.10;0.10;;;;;;;10.96;58.31;101990.28;5113915;28;20396;-85
2023/04/10 02:27:27;;;;;;;0.35;0.35;;;;;;;11.03;58.69;101980.50;5113628;28;20024;-86
2023/04/10 02:29:54;;;;;;;0.10;0.10;;;;;;;11.00;58.31;101982.31;5113257;28;20486;-85
2023/04/10 02:32:20;;;;;;;0.13;0.13;;;;;;;11.00;58.31;101982.31;5114038;28;20034;-86
2023/04/10 02:34:46;;;;;;;0.20;0.20;;;;;;;11.04;58.01;101984.94;5105040;28;20039;-85
2023/04/10 02:37:12;;;;;;;0.40;0.40;;;;;;;11.03;58.25;101989.38;5108003;28;20111;-85
2023/04/10 02:39:38;;;;;;;0.43;0.43;;;;;;;11.05;58.10;101986.69;5113938;28;20110;-85
2023/04/10 02:42:04;;;;;;;0.20;0.20;;;;;;;11.05;58.30;101989.34;5115712;28;20028;-85
2023/04/10 02:44:30;;;;;;;0.20;0.20;;;;;;;11.05;58.40;101994.66;5108810;28;20015;-85
2023/04/10 02:46:57;;;;;;;0.10;0.10;;;;;;;11.04;58.35;101998.19;5104352;28;20035;-85
2023/04/10 02:49:23;;;;;;;0.10;0.10;;;;;;;11.02;58.25;101998.22;5112227;28;20104;-86
2023/04/10 02:51:49;;;;;;;0.20;0.20;;;;;;;11.00;58.37;102002.63;5113656;28;20024;-85
2023/04/10 02:54:15;;;;;;;0.20;0.20;;;;;;;10.98;58.39;102005.28;5113515;28;20388;-85
2023/04/10 02:56:41;;;;;;;0.13;0.13;;;;;;;10.97;58.24;101997.34;5093026;28;20028;-85
2023/04/10 02:59:07;;;;;;;0.32;0.32;;;;;;;10.93;58.62;102001.78;5108647;28;20028;-87
2023/04/10 03:01:34;;;;;;;0.10;0.10;;;;;;;10.93;58.47;101999.13;5116645;28;20469;-86
2023/04/10 03:04:02;;;;;;;0.20;0.20;;;;;;;10.91;58.15;101998.22;5106118;28;20027;-86
2023/04/10 03:06:28;;;;;;;0.10;0.10;;;;;;;10.91;58.23;101995.56;5113832;27;20391;-85
2023/04/10 03:08:55;;;;;;;0.10;0.10;;;;;;;10.90;58.51;101996.47;5113530;28;20365;-84
2023/04/10 03:11:21;;;;;;;0.15;0.15;;;;;;;10.89;58.28;101994.72;5113527;27;20062;-84
2023/04/10 03:13:47;;;;;;;1.38;0.60;;;;;;;10.88;58.12;101987.66;5106496;28;20024;-84
2023/04/10 03:16:16;;;;;;;0.55;0.55;;;;;;;10.87;58.03;101985.00;5092675;28;20039;-84
2023/04/10 03:18:42;;;;;;;0.10;0.10;;;;;;;10.83;58.36;101989.44;5111935;28;20036;-84
2023/04/10 03:21:08;;;;;;;0.20;0.20;;;;;;;10.83;58.03;101978.84;5113120;28;20066;-85
2023/04/10 03:23:35;;;;;;;0.10;0.10;;;;;;;10.83;58.13;101977.03;5112933;28;20015;-85
2023/04/10 03:26:03;;;;;;;0.10;0.10;;;;;;;10.84;58.08;101981.47;5112804;28;20027;-85
2023/04/10 03:28:31;;;;;;;0.20;0.20;;;;;;;10.83;58.11;101979.69;5110355;28;20030;-85
2023/04/10 03:30:57;;;;;;;0.10;0.10;;;;;;;10.82;58.14;101971.75;5100378;28;20027;-85
2023/04/10 03:33:24;;;;;;;0.20;0.20;;;;;;;10.82;57.84;101972.63;5112868;28;20185;-85
2023/04/10 03:35:50;;;;;;;0.25;0.25;;;;;;;10.84;57.60;101965.56;5098441;28;20055;-85
2023/04/10 03:38:16;;;;;;;0.43;0.43;;;;;;;10.86;57.55;101973.50;5111897;28;20032;-85
2023/04/10 03:40:42;;;;;;;0.15;0.15;;;;;;;10.86;57.91;101962.91;5112239;28;20019;-84
2023/04/10 03:43:09;;;;;;;0.10;0.10;;;;;;;10.87;58.18;101964.66;5112579;28;20510;-85
2023/04/10 03:45:35;;;;;;;0.20;0.20;;;;;;;10.86;57.79;101957.59;5112459;28;20046;-84
2023/04/10 03:48:01;;;;;;;0.43;0.43;;;;;;;10.87;57.54;101953.19;5112814;28;20027;-84
2023/04/10 03:50:27;;;;;;;0.10;0.10;;;;;;;10.83;57.77;101947.00;5113260;28;20050;-85
2023/04/10 03:52:53;;;;;;;0.10;0.10;;;;;;;10.86;57.75;101941.69;5112527;28;20293;-84
2023/04/10 03:55:20;;;;;;;0.43;0.43;;;;;;;10.84;57.55;101943.44;5112879;28;20062;-84
2023/04/10 03:57:47;;;;;;;0.15;0.15;;;;;;;10.82;57.31;101932.00;5099284;28;20443;-85
2023/04/10 04:00:14;;;;;;;0.10;0.10;;;;;;;10.89;57.14;101935.50;5111869;28;20122;-85
2023/04/10 04:02:40;;;;;;;0.20;0.20;;;;;;;10.89;56.77;101931.09;5098878;28;20054;-85
2023/04/10 04:05:07;;;;;;;0.10;0.10;;;;;;;10.93;57.04;101927.53;5109105;28;20060;-84
2023/04/10 04:07:33;;;;;;;0.20;0.20;;;;;;;10.98;57.09;101932.81;5110574;28;20024;-84
2023/04/10 04:09:59;;;;;;;0.10;0.10;;;;;;;11.01;56.75;101932.78;5100074;28;20028;-84
2023/04/10 04:12:26;;;;;;;0.10;0.10;;;;;;;11.06;56.77;101927.47;5103020;28;20289;-84
2023/04/10 04:14:52;;;;;;;0.10;0.10;;;;;;;11.09;56.74;101932.75;5107599;28;20392;-85
2023/04/10 04:17:18;;;;;;;7.10;1.38;;;;;;;11.10;56.62;101930.13;5111568;28;20165;-85
2023/04/10 04:19:44;;;;;;;0.20;0.20;;;;;;;11.09;56.64;101923.03;5111640;28;20031;-84
2023/04/10 04:22:11;;;;;;;0.10;0.10;;;;;;;11.10;56.57;101923.91;5106024;28;20051;-85
2023/04/10 04:24:37;;;;;;;0.20;0.20;;;;;;;11.11;56.72;101915.06;5104105;28;20081;-84
2023/04/10 04:27:03;;;;;;;0.10;0.10;;;;;;;11.09;56.83;101911.53;5113601;28;20020;-85
2023/04/10 04:29:29;;;;;;;0.10;0.10;;;;;;;11.07;57.00;101914.19;5119898;28;20039;-85
2023/04/10 04:31:55;;;;;;;0.10;0.10;;;;;;;11.06;57.16;101911.56;5098898;28;20489;-85
2023/04/10 04:34:22;;;;;;;0.10;0.10;;;;;;;11.03;56.88;101908.91;5101609;28;20032;-86
2023/04/10 04:36:48;;;;;;;0.10;0.10;;;;;;;11.03;57.15;101906.25;5111791;28;20071;-85
2023/04/10 04:39:14;;;;;;;0.13;0.13;;;;;;;10.98;57.34;101909.81;5111506;28;20051;-85
2023/04/10 04:41:40;;;;;;;0.20;0.20;;;;;;;10.98;56.85;101904.50;5112256;28;20034;-85
2023/04/10 04:44:06;;;;;;;0.75;0.55;;;;;;;10.95;56.89;101899.25;5111464;28;20043;-85
2023/04/10 04:46:32;;;;;;;0.20;0.20;;;;;;;10.97;56.64;101891.28;5111466;28;20027;-86
2023/04/10 04:48:59;;;;;;;0.10;0.10;;;;;;;10.99;56.98;101884.16;5111112;28;20035;-85
2023/04/10 04:51:25;;;;;;;0.20;0.20;;;;;;;10.98;57.07;101891.25;5111751;28;20026;-86
2023/04/10 04:53:52;;;;;;;0.10;0.10;;;;;;;10.99;56.99;101885.06;5102869;28;20032;-84
2023/04/10 04:56:18;;;;;;;0.10;0.10;;;;;;;10.97;57.04;101896.56;5108685;28;20032;-85
2023/04/10 04:58:44;;;;;;;0.43;0.43;;;;;;;10.99;57.58;101889.47;5111223;27;20030;-85
2023/04/10 05:01:10;;;;;;;0.20;0.20;;;;;;;10.99;57.48;101886.81;5114734;28;20035;-85
2023/04/10 05:03:36;;;;;;;0.30;0.30;;;;;;;10.98;57.20;101891.25;5107677;28;20031;-84
2023/04/10 05:06:03;;;;;;;0.30;0.30;;;;;;;10.97;57.25;101885.97;5094518;28;20055;-84
2023/04/10 05:08:29;;;;;;;0.10;0.10;;;;;;;10.97;57.51;101892.13;5108530;28;20024;-84
2023/04/10 05:10:55;;;;;;;0.10;0.10;;;;;;;10.88;57.68;101892.19;5111468;28;20020;-84
2023/04/10 05:13:21;;;;;;;0.10;0.10;;;;;;;10.86;57.70;101886.00;5107358;28;20039;-85
2023/04/10 05:15:48;;;;;;;0.20;0.20;;;;;;;10.90;57.76;101890.41;5119031;28;20392;-84
2023/04/10 05:18:18;;;;;;;0.20;0.20;;;;;;;10.89;58.06;101891.31;5099197;28;20032;-85
2023/04/10 05:20:46;;;;;;;0.50;0.50;;;;;;;10.88;58.27;101891.28;5102824;28;20027;-83
2023/04/10 05:23:12;;;;;;;0.15;0.15;;;;;;;10.89;57.83;101883.38;5114929;28;20031;-86
2023/04/10 05:25:38;;;;;;;0.10;0.10;;;;;;;10.91;57.97;101886.88;5115064;28;20039;-84
2023/04/10 05:28:04;;;;;;;0.08;0.08;;;;;;;10.90;57.86;101890.41;5102050;28;20024;-84
2023/04/10 05:30:30;;;;;;;0.00;0.00;;;;;;;10.91;57.97;101893.94;5099706;28;20055;-84
2023/04/10 05:32:56;;;;;;;0.10;0.10;;;;;;;10.93;58.17;101895.72;5104958;28;20384;-85
2023/04/10 05:35:22;;;;;;;0.10;0.10;;;;;;;10.94;57.77;101900.13;5094612;28;20035;-84
2023/04/10 05:37:48;;;;;;;0.10;0.10;;;;;;;10.99;57.72;101894.78;5103980;28;20031;-85
2023/04/10 05:40:14;;;;;;;0.10;0.10;;;;;;;11.03;57.81;101900.94;5099519;28;20028;-85
2023/04/10 05:42:40;;;;;;;3.75;2.15;;;;;;;11.03;57.74;101893.00;5094951;28;20115;-85
2023/04/10 05:45:07;;;;;;;0.90;0.90;;;;;;;11.08;57.06;101899.16;5094750;28;20028;-84
2023/04/10 05:47:33;;;;;;;0.10;0.10;;;;;;;11.12;57.42;101899.13;5099241;28;20028;-86
2023/04/10 05:49:59;;;;;;;0.10;0.10;;;;;;;11.10;57.25;101892.97;5114756;28;20047;-85
2023/04/10 05:52:25;;;;;;;0.10;0.10;;;;;;;11.17;57.14;101884.06;5112159;28;20937;-84
2023/04/10 05:54:51;;;;;;;0.10;0.10;;;;;;;11.21;57.07;101886.72;5113465;28;20532;-86
2023/04/10 05:57:17;;;;;;;0.10;0.10;;;;;;;11.28;57.00;101881.38;5114906;28;20115;-84
2023/04/10 05:59:44;;;;;;;0.13;0.13;;;;;;;11.33;57.11;101884.00;5111053;28;20512;-84
2023/04/10 06:02:10;;;;;;;0.10;0.10;;;;;;;11.34;57.12;101877.81;5103549;28;20039;-85
2023/04/10 06:04:37;;;;;;;0.10;0.10;;;;;;;11.37;56.92;101875.13;5114427;28;20030;-85
2023/04/10 06:07:03;;;;;;;0.22;0.22;;;;;;;11.40;56.43;101876.88;5114381;28;20035;-85
2023/04/10 06:09:29;;;;;;;0.10;0.10;;;;;;;11.43;56.68;101874.22;5112952;28;20042;-85
2023/04/10 06:11:55;;;;;;;0.10;0.10;;;;;;;11.49;56.60;101874.16;5114426;28;20088;-85
2023/04/10 06:14:21;;;;;;;0.10;0.10;;;;;;;11.49;56.65;101859.09;5114702;28;20102;-85
2023/04/10 06:16:47;;;;;;;0.10;0.10;;;;;;;11.51;56.77;101863.53;5110171;28;20030;-85
2023/04/10 06:19:13;;;;;;;0.10;0.10;;;;;;;11.51;56.39;101858.22;5107681;28;20488;-84
2023/04/10 06:21:40;;;;;;;0.17;0.17;;;;;;;11.53;56.45;101857.31;5118456;28;20032;-85
2023/04/10 06:24:06;;;;;;;0.50;0.50;;;;;;;11.54;56.35;101851.13;5114951;28;20040;-85
2023/04/10 06:26:32;;;;;;;0.20;0.20;;;;;;;11.56;56.79;101851.09;5113678;28;20484;-85
2023/04/10 06:28:58;;;;;;;0.10;0.10;;;;;;;11.54;56.38;101839.59;5112980;28;20446;-85
2023/04/10 06:31:25;;;;;;;0.10;0.10;;;;;;;11.56;56.36;101828.06;5114351;28;20024;-85
2023/04/10 06:33:51;;;;;;;0.10;0.10;;;;;;;11.57;56.04;101821.00;5113591;28;20407;-85
2023/04/10 06:36:17;;;;;;;0.38;0.38;;;;;;;11.62;56.40;101814.75;5113829;28;20026;-86
2023/04/10 06:38:43;;;;;;;0.15;0.15;;;;;;;11.61;55.79;101814.78;5112970;28;20031;-86
2023/04/10 06:41:09;;;;;;;0.93;0.93;;;;;;;11.68;55.98;101805.88;5113943;28;20031;-85
2023/04/10 06:43:37;;;;;;;0.20;0.20;;;;;;;11.71;55.57;101807.63;5099294;28;20035;-85
2023/04/10 06:46:04;;;;;;;0.98;0.98;;;;;;;11.74;55.67;101799.59;5113179;27;20369;-85
2023/04/10 06:48:32;;;;;;;0.30;0.30;;;;;;;11.84;55.89;101801.31;5112892;28;20388;-85
2023/04/10 06:50:59;;;;;;;0.75;0.47;;;;;;;11.86;55.80;101799.50;5112673;28;20035;-85
2023/04/10 06:53:26;;;;;;;0.10;0.10;;;;;;;11.91;55.48;101795.03;5113284;28;20386;-85
2023/04/10 06:55:52;;;;;;;0.05;0.05;;;;;;;12.01;55.20;101779.88;5113130;28;20519;-85
2023/04/10 06:58:19;;;;;;;0.10;0.10;;;;;;;12.02;54.39;101779.00;5112667;28;20036;-86
2023/04/10 07:00:45;;;;;;;0.10;0.10;;;;;;;12.14;55.29;101783.31;5114312;28;20019;-86
2023/04/10 07:03:12;;;;;;;0.10;0.10;;;;;;;12.20;54.63;101775.28;5100036;28;20488;-85
2023/04/10 07:05:38;;;;;;;1.13;0.82;;;;;;;12.27;54.33;101770.75;5110566;28;20024;-85
2023/04/10 07:08:04;;;;;;;3.42;1.95;;;;;;;12.27;54.27;101763.69;5115539;28;20032;-84
2023/04/10 07:10:30;;;;;;;2.40;2.20;;;;;;;12.38;53.95;101762.66;5131914;28;20024;-84
2023/04/10 07:12:57;;;;;;;0.10;0.10;;;;;;;12.47;53.44;101757.19;5131456;28;20032;-85
2023/04/10 07:15:24;;;;;;;0.10;0.10;;;;;;;12.58;53.53;101770.34;5131958;27;20003;-84
2023/04/10 07:17:50;;;;;;;0.10;0.10;;;;;;;12.55;53.77;101765.97;5114828;28;20024;-85
2023/04/10 07:20:16;;;;;;;0.10;0.10;;;;;;;12.58;52.93;101752.63;5116002;28;20356;-85
2023/04/10 07:22:43;;;;;;;0.10;0.10;;;;;;;12.61;53.00;101757.00;5107568;28;20028;-85
2023/04/10 07:25:09;;;;;;;0.20;0.20;;;;;;;12.65;52.82;101756.09;5124080;28;20039;-87
2023/04/10 07:27:35;;;;;;;0.10;0.10;;;;;;;12.77;52.85;101753.25;5106514;28;20020;-85
2023/04/10 07:30:01;;;;;;;0.10;0.10;;;;;;;12.85;53.12;101750.47;5111135;28;20031;-85
2023/04/10 07:32:28;;;;;;;0.30;0.30;;;;;;;12.88;52.58;101745.09;5101976;28;20039;-83
2023/04/10 07:34:54;;;;;;;0.38;0.38;;;;;;;12.88;52.35;101745.09;5102620;28;20035;-83
2023/04/10 07:37:20;;;;;;;0.10;0.10;;;;;;;12.98;52.29;101737.00;5096644;28;20020;-85
2023/04/10 07:39:47;;;;;;;0.65;0.65;;;;;;;13.03;52.29;101733.34;5111418;28;20111;-87
2023/04/10 07:42:13;;;;;;;0.25;0.25;;;;;;;13.08;52.06;101735.94;5117545;28;20103;-84
2023/04/10 07:44:39;;;;;;;0.20;0.20;;;;;;;13.08;51.72;101733.28;5106610;28;20049;-85
2023/04/10 07:47:05;;;;;;;0.45;0.45;;;;;;;13.16;51.54;101735.81;5097040;28;20087;-84
2023/04/10 07:49:31;;;;;;;0.40;0.40;;;;;;;13.24;51.02;101732.09;5115727;28;20107;-85
2023/04/10 07:51:57;;;;;;;0.20;0.20;;;;;;;13.34;51.23;101716.00;5103128;28;20051;-83
2023/04/10 07:54:23;;;;;;;0.20;0.20;;;;;;;13.42;51.32;101714.09;5113156;28;20027;-85
2023/04/10 07:56:52;;;;;;;0.82;0.52;;;;;;;13.48;50.24;101708.66;5115048;28;20032;-84
2023/04/10 07:59:18;;;;;;;0.10;0.10;;;;;;;13.58;49.98;101712.94;5100298;28;20028;-84
2023/04/10 08:01:44;;;;;;;0.10;0.10;;;;;;;13.66;50.03;101703.94;5112855;28;20043;-85
2023/04/10 08:04:10;;;;;;;0.10;0.10;;;;;;;13.68;49.78;101688.78;5115644;28;20480;-85
2023/04/10 08:06:36;;;;;;;0.25;0.25;;;;;;;13.75;49.98;101695.75;5113525;28;20091;-85
2023/04/10 08:09:03;;;;;;;0.10;0.10;;;;;;;13.84;49.75;101692.03;5113021;28;20028;-84
2023/04/10 08:11:33;;;;;;;0.80;0.80;;;;;;;13.88;50.08;101688.38;5112978;28;20033;-85
2023/04/10 08:14:01;;;;;;;0.10;0.10;;;;;;;13.85;50.37;101676.00;5113294;28;20119;-85
2023/04/10 08:16:29;;;;;;;0.10;0.10;;;;;;;13.77;50.40;101677.97;5112468;28;20159;-86
2023/04/10 08:18:56;;;;;;;1.45;1.30;;;;;;;13.76;50.38;101660.22;5112543;28;20031;-85
2023/04/10 08:21:25;;;;;;;0.20;0.20;;;;;;;13.79;50.32;101668.13;5112484;28;20069;-85
2023/04/10 08:23:53;;;;;;;0.17;0.17;;;;;;;13.78;50.38;101663.69;5112539;28;20672;-85
2023/04/10 08:26:20;;;;;;;0.60;0.60;;;;;;;13.85;50.68;101662.69;5113601;28;20050;-85
2023/04/10 08:28:49;;;;;;;0.20;0.20;;;;;;;13.89;50.89;101659.06;5114036;28;20079;-83
2023/04/10 08:31:15;;;;;;;0.95;0.95;;;;;;;13.96;50.70;101661.59;5124323;28;20043;-87
2023/04/10 08:33:41;;;;;;;0.75;0.75;;;;;;;14.00;50.61;101664.13;5121438;28;20131;-85
2023/04/10 08:36:09;;;;;;;0.40;0.40;;;;;;;14.04;50.03;101659.63;5116567;28;20116;-85
2023/04/10 08:38:36;;;;;;;0.10;0.10;;;;;;;14.10;49.55;101664.81;5116199;28;20032;-84
2023/04/10 08:41:02;;;;;;;0.10;0.10;;;;;;;14.20;49.94;101665.50;5116270;28;20361;-85
2023/04/10 08:43:29;;;;;;;0.40;0.40;;;;;;;14.25;49.06;101652.94;5116445;28;20084;-84
2023/04/10 08:45:55;;;;;;;0.77;0.77;;;;;;;14.25;48.75;101647.63;5117049;28;20053;-85
2023/04/10 08:48:30;;;;;;;0.10;0.10;;;;;;;14.38;48.94;101648.22;5105904;28;20028;-86
2023/04/10 08:51:00;;;;;;;0.10;0.10;;;;;;;14.40;49.19;101647.28;5117257;28;20073;-85
2023/04/10 08:53:30;;;;;;;0.10;0.10;;;;;;;14.54;49.02;101636.28;5117326;28;20175;-85
2023/04/10 08:55:57;;;;;;;0.10;0.10;;;;;;;14.54;48.21;101625.63;5103054;28;20024;-84
2023/04/10 08:58:24;;;;;;;0.10;0.10;;;;;;;14.62;49.13;101613.91;5096151;28;20024;-84
2023/04/10 09:00:50;;;;;;;0.20;0.20;;;;;;;14.68;49.36;101613.78;5108258;28;20031;-85
2023/04/10 09:03:17;;;;;;;0.17;0.17;;;;;;;14.82;49.20;101616.97;5110757;28;20020;-85
2023/04/10 09:05:43;;;;;;;0.25;0.25;;;;;;;14.87;48.76;101614.19;5106009;28;20485;-84
2023/04/10 09:08:10;;;;;;;0.20;0.20;;;;;;;14.87;48.86;101617.72;5114674;28;20019;-84
2023/04/10 09:10:38;;;;;;;0.45;0.45;;;;;;;14.95;48.41;101606.84;5115478;28;20026;-84
2023/04/10 09:13:04;;;;;;;1.48;1.38;;;;;;;15.07;48.35;101604.78;5101171;28;20111;-86
2023/04/10 09:15:30;;;;;;;0.10;0.10;;;;;;;15.08;48.36;101595.84;5115410;28;20045;-85
2023/04/10 09:17:59;;;;;;;1.50;1.40;;;;;;;15.13;48.12;101600.16;5114192;28;20401;-86
2023/04/10 09:20:28;;;;;;;0.40;0.40;;;;;;;15.20;48.24;101593.75;5109544;28;20047;-86
2023/04/10 09:22:54;;;;;;;3.03;0.85;;;;;;;15.22;48.25;101598.16;5106967;28;20507;-85
2023/04/10 09:25:33;;;;;;;0.30;0.30;;;;;;;15.41;47.64;101599.38;5100517;28;20102;-85
2023/04/10 09:28:01;;;;;;;0.10;0.10;;;;;;;15.52;47.93;101591.06;5114975;28;20452;-86
2023/04/10 09:30:43;;;;;;;0.90;0.90;;;;;;;15.59;47.53;101587.31;5111528;28;20028;-86
2023/04/10 09:33:26;;;;;;;0.10;0.10;;;;;;;15.69;46.21;101587.94;5107679;28;20111;-85
2023/04/10 09:35:56;;;;;;;0.05;0.05;;;;;;;15.73;47.21;101584.22;5121680;27;20613;-85
2023/04/10 09:38:22;;;;;;;0.25;0.25;;;;;;;15.77;46.89;101568.97;5120494;28;20073;-85
2023/04/10 09:40:49;;;;;;;0.95;0.95;;;;;;;15.63;46.09;101566.72;5114070;28;20036;-86
2023/04/10 09:45:56;;;;;;;0.30;0.30;;;;;;;15.72;46.35;101560.25;5104728;27;20389;-85
2023/04/10 09:48:23;;;;;;;0.45;0.25;;;;;;;15.71;47.09;101562.00;5089080;28;20040;-85
2023/04/10 09:50:50;;;;;;;0.10;0.10;;;;;;;15.71;47.06;101553.13;5069352;28;20029;-85
2023/04/10 09:53:19;;;;;;;0.32;0.32;;;;;;;15.57;45.95;101550.88;5065137;28;20029;-84
2023/04/10 09:55:47;;;;;;;0.30;0.30;;;;;;;15.67;46.69;101541.66;5062661;28;20031;-83
2023/04/10 09:58:14;;;;;;;2.83;0.50;;;;;;;15.67;46.19;101552.34;5068420;28;20032;-84
2023/04/10 10:00:43;;;;;;;0.20;0.20;;;;;;;15.73;46.46;101545.97;5069041;28;20025;-84
2023/04/10 10:03:12;;;;;;;0.32;0.32;;;;;;;15.77;46.27;101540.47;5069664;28;20024;-85
2023/04/10 10:05:40;;;;;;;0.40;0.40;;;;;;;15.87;46.39;101532.22;5069223;28;20017;-85
2023/04/10 10:08:12;;;;;;;0.10;0.10;;;;;;;16.00;46.32;101523.75;5068115;28;20036;-84
2023/04/10 10:10:49;;;;;;;1.38;0.95;;;;;;;15.95;45.82;101523.03;5068672;28;20025;-84
2023/04/10 10:16:14;;;;;;;1.35;0.95;;;;;;;16.12;46.24;101513.59;5109340;27;21107;-85
2023/04/10 10:19:00;;;;;;;0.57;0.57;;;;;;;16.16;45.89;101508.09;5108788;27;20085;-84
2023/04/10 10:21:29;;;;;;;0.10;0.10;;;;;;;16.27;46.12;101510.38;5109038;28;20027;-84
2023/04/10 10:24:00;;;;;;;0.13;0.13;;;;;;;16.33;45.99;101498.63;5109119;28;20020;-85
2023/04/10 10:26:28;;;;;;;0.10;0.10;;;;;;;16.42;45.39;101484.94;5112143;27;20042;-85
2023/04/10 10:28:56;;;;;;;0.30;0.30;;;;;;;16.55;46.21;101498.78;5109252;28;20460;-84
2023/04/10 10:31:24;;;;;;;0.70;0.70;;;;;;;16.78;45.53;101489.06;5109188;28;20059;-86
2023/04/10 10:33:52;;;;;;;0.10;0.10;;;;;;;16.94;45.21;101484.06;5105459;28;20485;-86
2023/04/10 10:36:20;;;;;;;0.52;0.52;;;;;;;17.20;45.18;101480.41;5098888;28;20126;-85
2023/04/10 10:39:18;;;;;;;0.30;0.30;;;;;;;17.44;44.34;101478.59;5108911;28;20032;-85
2023/04/10 10:42:09;;;;;;;0.20;0.20;;;;;;;17.56;43.57;101471.03;5112671;28;20020;-85
2023/04/10 10:44:59;;;;;;;0.43;0.43;;;;;;;17.72;42.17;101452.53;5093852;28;20088;-86
2023/04/10 10:47:29;;;;;;;0.45;0.43;;;;;;;17.78;43.37;101450.47;5109057;28;20027;-85
2023/04/10 10:58:00;;;;;;;0.60;0.60;;;;;;;18.32;42.00;101415.22;5075081;28;20776;-85
2023/04/10 11:00:46;;;;;;;0.35;0.35;;;;;;;18.42;41.79;101421.91;5054547;28;20037;-85
2023/04/10 11:19:11;;;;;;;0.28;0.28;;;;;;;19.21;40.02;101377.22;5068796;28;20956;-85
2023/04/10 11:21:59;;;;;;;0.55;0.55;;;;;;;19.46;40.32;101367.97;5055347;28;20086;-85
2023/04/10 11:24:26;;;;;;;0.30;0.30;;;;;;;19.31;39.73;101370.44;5069175;28;20029;-85
2023/04/10 11:26:52;;;;;;;0.47;0.47;;;;;;;19.39;40.72;101357.53;5068741;28;20043;-85
2023/04/10 11:32:00;;;;;;;0.10;0.10;;;;;;;19.39;40.41;101357.53;5068839;28;20669;-86
2023/04/10 11:34:27;;;;;;;0.10;0.10;;;;;;;19.19;40.34;101354.91;5060385;28;20091;-85
2023/04/10 11:36:53;;;;;;;0.38;0.38;;;;;;;19.15;40.44;101342.59;5063802;28;20052;-85
2023/04/10 11:39:20;;;;;;;2.97;1.58;;;;;;;19.07;40.23;101333.09;5061762;28;20025;-85
2023/04/10 11:41:48;;;;;;;0.10;0.10;;;;;;;19.12;40.86;101323.94;5062418;28;20024;-85
2023/04/10 11:44:19;;;;;;;0.13;0.13;;;;;;;19.01;41.09;101324.47;5071494;28;20490;-86
2023/04/10 11:46:50;;;;;;;0.10;0.10;;;;;;;18.95;40.90;101322.06;5080702;28;20506;-86
2023/04/10 11:49:20;;;;;;;0.10;0.10;;;;;;;18.90;41.46;101320.47;5077202;28;20036;-86
2023/04/10 11:51:50;;;;;;;0.25;0.25;;;;;;;18.83;41.18;101305.56;5072533;28;20390;-86
2023/04/10 11:57:11;;;;;;;0.20;0.20;;;;;;;18.75;41.85;101311.31;5092136;27;20369;-86
2023/04/10 11:59:48;;;;;;;0.90;0.82;;;;;;;18.64;41.88;101302.00;5089722;28;20124;-85
2023/04/10 12:02:14;;;;;;;0.30;0.30;;;;;;;18.57;42.46;101288.00;5091671;28;20035;-85
2023/04/10 12:04:42;;;;;;;0.10;0.10;;;;;;;18.40;42.25;101286.94;5074502;28;20060;-86